sensor_id;sensor_type;location;lat;lon;timestamp;P1;durP1;ratioP1;P2;durP2;ratioP2
11042;SDS011;5574;48.786;10.120;2023-05-23T00:01:43;10.30;;;9.13;;
11042;SDS011;5574;48.786;10.120;2023-05-23T00:04:10;11.05;;;9.95;;
11042;SDS011;5574;48.786;10.120;2023-05-23T00:06:41;10.25;;;9.25;;
11042;SDS011;5574;48.786;10.120;2023-05-23T00:09:10;10.15;;;9.10;;
11042;SDS011;5574;48.786;10.120;2023-05-23T00:11:38;10.07;;;9.07;;
11042;SDS011;5574;48.786;10.120;2023-05-23T00:14:09;9.82;;;8.82;;
11042;SDS011;5574;48.786;10.120;2023-05-23T00:16:37;10.93;;;9.27;;
11042;SDS011;5574;48.786;10.120;2023-05-23T00:19:08;10.35;;;9.25;;
11042;SDS011;5574;48.786;10.120;2023-05-23T00:21:35;10.57;;;9.52;;
11042;SDS011;5574;48.786;10.120;2023-05-23T00:24:02;11.23;;;10.13;;
11042;SDS011;5574;48.786;10.120;2023-05-23T00:26:29;11.38;;;10.23;;
11042;SDS011;5574;48.786;10.120;2023-05-23T00:28:57;11.30;;;10.05;;
11042;SDS011;5574;48.786;10.120;2023-05-23T00:31:23;11.27;;;10.18;;
11042;SDS011;5574;48.786;10.120;2023-05-23T00:33:50;11.75;;;10.55;;
11042;SDS011;5574;48.786;10.120;2023-05-23T00:36:18;14.02;;;11.73;;
11042;SDS011;5574;48.786;10.120;2023-05-23T00:38:46;15.10;;;13.05;;
11042;SDS011;5574;48.786;10.120;2023-05-23T00:41:13;15.10;;;12.80;;
11042;SDS011;5574;48.786;10.120;2023-05-23T00:43:40;14.50;;;12.95;;
11042;SDS011;5574;48.786;10.120;2023-05-23T00:46:06;13.93;;;12.00;;
11042;SDS011;5574;48.786;10.120;2023-05-23T00:48:35;13.45;;;12.05;;
11042;SDS011;5574;48.786;10.120;2023-05-23T00:51:02;12.88;;;11.50;;
11042;SDS011;5574;48.786;10.120;2023-05-23T00:53:31;12.75;;;11.45;;
11042;SDS011;5574;48.786;10.120;2023-05-23T00:55:59;14.55;;;12.48;;
11042;SDS011;5574;48.786;10.120;2023-05-23T00:58:27;13.38;;;12.00;;
11042;SDS011;5574;48.786;10.120;2023-05-23T01:00:53;13.73;;;12.27;;
11042;SDS011;5574;48.786;10.120;2023-05-23T01:03:20;13.30;;;11.70;;
11042;SDS011;5574;48.786;10.120;2023-05-23T01:05:47;14.27;;;12.52;;
11042;SDS011;5574;48.786;10.120;2023-05-23T01:08:14;14.70;;;12.23;;
11042;SDS011;5574;48.786;10.120;2023-05-23T01:10:42;13.07;;;11.68;;
11042;SDS011;5574;48.786;10.120;2023-05-23T01:13:12;14.27;;;12.27;;
11042;SDS011;5574;48.786;10.120;2023-05-23T01:15:48;14.38;;;12.88;;
11042;SDS011;5574;48.786;10.120;2023-05-23T01:18:22;13.32;;;11.98;;
11042;SDS011;5574;48.786;10.120;2023-05-23T01:20:55;12.57;;;11.23;;
11042;SDS011;5574;48.786;10.120;2023-05-23T01:23:30;12.80;;;11.60;;
11042;SDS011;5574;48.786;10.120;2023-05-23T01:26:21;14.00;;;12.07;;
11042;SDS011;5574;48.786;10.120;2023-05-23T01:29:00;13.52;;;12.13;;
11042;SDS011;5574;48.786;10.120;2023-05-23T01:31:34;14.68;;;12.73;;
11042;SDS011;5574;48.786;10.120;2023-05-23T01:34:02;13.93;;;12.45;;
11042;SDS011;5574;48.786;10.120;2023-05-23T01:36:31;13.45;;;12.02;;
11042;SDS011;5574;48.786;10.120;2023-05-23T01:38:59;13.13;;;11.70;;
11042;SDS011;5574;48.786;10.120;2023-05-23T01:41:26;12.40;;;10.68;;
11042;SDS011;5574;48.786;10.120;2023-05-23T01:43:53;12.98;;;11.68;;
11042;SDS011;5574;48.786;10.120;2023-05-23T01:46:21;12.27;;;10.98;;
11042;SDS011;5574;48.786;10.120;2023-05-23T01:48:49;11.80;;;10.70;;
11042;SDS011;5574;48.786;10.120;2023-05-23T01:51:16;13.05;;;11.00;;
11042;SDS011;5574;48.786;10.120;2023-05-23T01:53:43;11.80;;;10.60;;
11042;SDS011;5574;48.786;10.120;2023-05-23T01:56:10;12.52;;;11.23;;
11042;SDS011;5574;48.786;10.120;2023-05-23T01:58:38;12.48;;;11.20;;
11042;SDS011;5574;48.786;10.120;2023-05-23T02:01:05;12.25;;;10.95;;
11042;SDS011;5574;48.786;10.120;2023-05-23T02:03:33;12.18;;;10.98;;
11042;SDS011;5574;48.786;10.120;2023-05-23T02:06:00;12.15;;;10.85;;
11042;SDS011;5574;48.786;10.120;2023-05-23T02:08:27;12.48;;;11.18;;
11042;SDS011;5574;48.786;10.120;2023-05-23T02:10:53;11.93;;;10.70;;
11042;SDS011;5574;48.786;10.120;2023-05-23T02:13:20;12.40;;;11.07;;
11042;SDS011;5574;48.786;10.120;2023-05-23T02:15:47;13.05;;;11.75;;
11042;SDS011;5574;48.786;10.120;2023-05-23T02:18:14;12.40;;;11.10;;
11042;SDS011;5574;48.786;10.120;2023-05-23T02:20:42;16.27;;;14.65;;
11042;SDS011;5574;48.786;10.120;2023-05-23T02:23:08;20.27;;;16.60;;
11042;SDS011;5574;48.786;10.120;2023-05-23T02:25:35;18.35;;;16.30;;
11042;SDS011;5574;48.786;10.120;2023-05-23T02:28:02;18.40;;;15.50;;
11042;SDS011;5574;48.786;10.120;2023-05-23T02:30:28;15.88;;;13.18;;
11042;SDS011;5574;48.786;10.120;2023-05-23T02:32:55;15.93;;;14.05;;
11042;SDS011;5574;48.786;10.120;2023-05-23T02:35:22;16.10;;;14.40;;
11042;SDS011;5574;48.786;10.120;2023-05-23T02:37:50;16.40;;;14.23;;
11042;SDS011;5574;48.786;10.120;2023-05-23T02:40:16;15.43;;;13.70;;
11042;SDS011;5574;48.786;10.120;2023-05-23T02:42:43;17.38;;;14.82;;
11042;SDS011;5574;48.786;10.120;2023-05-23T02:45:10;15.25;;;13.57;;
11042;SDS011;5574;48.786;10.120;2023-05-23T02:47:37;16.67;;;14.60;;
11042;SDS011;5574;48.786;10.120;2023-05-23T02:50:04;16.88;;;14.93;;
11042;SDS011;5574;48.786;10.120;2023-05-23T02:52:31;15.57;;;13.98;;
11042;SDS011;5574;48.786;10.120;2023-05-23T02:54:59;15.57;;;12.70;;
11042;SDS011;5574;48.786;10.120;2023-05-23T02:57:26;16.35;;;14.40;;
11042;SDS011;5574;48.786;10.120;2023-05-23T02:59:53;15.73;;;13.48;;
11042;SDS011;5574;48.786;10.120;2023-05-23T03:02:19;16.13;;;13.70;;
11042;SDS011;5574;48.786;10.120;2023-05-23T03:04:46;16.52;;;14.48;;
11042;SDS011;5574;48.786;10.120;2023-05-23T03:07:13;15.80;;;13.73;;
11042;SDS011;5574;48.786;10.120;2023-05-23T03:09:40;17.27;;;15.30;;
11042;SDS011;5574;48.786;10.120;2023-05-23T03:12:08;19.58;;;15.80;;
11042;SDS011;5574;48.786;10.120;2023-05-23T03:14:35;20.23;;;17.10;;
11042;SDS011;5574;48.786;10.120;2023-05-23T03:17:01;18.45;;;15.77;;
11042;SDS011;5574;48.786;10.120;2023-05-23T03:19:28;23.13;;;16.20;;
11042;SDS011;5574;48.786;10.120;2023-05-23T03:21:55;22.63;;;15.75;;
11042;SDS011;5574;48.786;10.120;2023-05-23T03:24:22;23.63;;;15.85;;
11042;SDS011;5574;48.786;10.120;2023-05-23T03:26:48;18.80;;;15.55;;
11042;SDS011;5574;48.786;10.120;2023-05-23T03:29:16;23.40;;;15.85;;
11042;SDS011;5574;48.786;10.120;2023-05-23T03:31:43;19.45;;;15.65;;
11042;SDS011;5574;48.786;10.120;2023-05-23T03:34:10;25.52;;;19.67;;
11042;SDS011;5574;48.786;10.120;2023-05-23T03:36:37;26.38;;;20.67;;
11042;SDS011;5574;48.786;10.120;2023-05-23T03:39:04;25.83;;;21.20;;
11042;SDS011;5574;48.786;10.120;2023-05-23T03:41:31;29.73;;;23.45;;
11042;SDS011;5574;48.786;10.120;2023-05-23T03:43:58;28.92;;;23.02;;
11042;SDS011;5574;48.786;10.120;2023-05-23T03:46:26;29.63;;;23.75;;
11042;SDS011;5574;48.786;10.120;2023-05-23T03:48:53;32.10;;;25.38;;
11042;SDS011;5574;48.786;10.120;2023-05-23T03:51:20;30.10;;;24.77;;
11042;SDS011;5574;48.786;10.120;2023-05-23T03:53:48;30.90;;;25.08;;
11042;SDS011;5574;48.786;10.120;2023-05-23T03:56:14;31.50;;;24.58;;
11042;SDS011;5574;48.786;10.120;2023-05-23T03:58:41;35.83;;;27.13;;
11042;SDS011;5574;48.786;10.120;2023-05-23T04:01:08;30.42;;;24.45;;
11042;SDS011;5574;48.786;10.120;2023-05-23T04:03:36;30.88;;;24.35;;
11042;SDS011;5574;48.786;10.120;2023-05-23T04:06:02;32.35;;;24.02;;
11042;SDS011;5574;48.786;10.120;2023-05-23T04:08:30;34.63;;;24.65;;
11042;SDS011;5574;48.786;10.120;2023-05-23T04:10:58;30.55;;;23.98;;
11042;SDS011;5574;48.786;10.120;2023-05-23T04:13:25;32.58;;;25.58;;
11042;SDS011;5574;48.786;10.120;2023-05-23T04:15:52;31.75;;;24.67;;
11042;SDS011;5574;48.786;10.120;2023-05-23T04:18:20;33.17;;;25.15;;
11042;SDS011;5574;48.786;10.120;2023-05-23T04:20:48;35.95;;;25.60;;
11042;SDS011;5574;48.786;10.120;2023-05-23T04:23:15;35.38;;;25.15;;
11042;SDS011;5574;48.786;10.120;2023-05-23T04:25:42;31.02;;;24.02;;
11042;SDS011;5574;48.786;10.120;2023-05-23T04:28:09;33.33;;;24.73;;
11042;SDS011;5574;48.786;10.120;2023-05-23T04:30:36;30.85;;;24.50;;
11042;SDS011;5574;48.786;10.120;2023-05-23T04:33:03;34.78;;;24.30;;
11042;SDS011;5574;48.786;10.120;2023-05-23T04:35:30;33.70;;;24.92;;
11042;SDS011;5574;48.786;10.120;2023-05-23T04:37:59;32.97;;;25.48;;
11042;SDS011;5574;48.786;10.120;2023-05-23T04:40:27;36.22;;;25.67;;
11042;SDS011;5574;48.786;10.120;2023-05-23T04:42:55;37.17;;;26.80;;
11042;SDS011;5574;48.786;10.120;2023-05-23T04:45:21;35.47;;;27.05;;
11042;SDS011;5574;48.786;10.120;2023-05-23T04:47:50;36.40;;;27.15;;
11042;SDS011;5574;48.786;10.120;2023-05-23T04:50:18;42.45;;;27.58;;
11042;SDS011;5574;48.786;10.120;2023-05-23T04:52:46;34.85;;;25.73;;
11042;SDS011;5574;48.786;10.120;2023-05-23T04:55:14;40.28;;;26.77;;
11042;SDS011;5574;48.786;10.120;2023-05-23T04:57:40;36.33;;;27.90;;
11042;SDS011;5574;48.786;10.120;2023-05-23T05:00:07;35.70;;;27.55;;
11042;SDS011;5574;48.786;10.120;2023-05-23T05:02:35;36.83;;;26.50;;
11042;SDS011;5574;48.786;10.120;2023-05-23T05:05:02;37.42;;;27.77;;
11042;SDS011;5574;48.786;10.120;2023-05-23T05:07:29;34.45;;;26.05;;
11042;SDS011;5574;48.786;10.120;2023-05-23T05:09:56;34.85;;;26.40;;
11042;SDS011;5574;48.786;10.120;2023-05-23T05:12:24;35.17;;;25.67;;
11042;SDS011;5574;48.786;10.120;2023-05-23T05:14:50;32.95;;;24.50;;
11042;SDS011;5574;48.786;10.120;2023-05-23T05:17:17;32.40;;;23.77;;
11042;SDS011;5574;48.786;10.120;2023-05-23T05:19:44;32.97;;;24.55;;
11042;SDS011;5574;48.786;10.120;2023-05-23T05:22:11;33.17;;;25.10;;
11042;SDS011;5574;48.786;10.120;2023-05-23T05:24:37;36.50;;;24.77;;
11042;SDS011;5574;48.786;10.120;2023-05-23T05:27:05;36.88;;;24.67;;
11042;SDS011;5574;48.786;10.120;2023-05-23T05:29:34;31.88;;;24.00;;
11042;SDS011;5574;48.786;10.120;2023-05-23T05:32:02;32.13;;;22.77;;
11042;SDS011;5574;48.786;10.120;2023-05-23T05:34:28;30.00;;;22.27;;
11042;SDS011;5574;48.786;10.120;2023-05-23T05:36:55;25.95;;;20.83;;
11042;SDS011;5574;48.786;10.120;2023-05-23T05:39:22;26.95;;;20.55;;
11042;SDS011;5574;48.786;10.120;2023-05-23T05:41:49;24.50;;;19.05;;
11042;SDS011;5574;48.786;10.120;2023-05-23T05:44:16;24.42;;;19.83;;
11042;SDS011;5574;48.786;10.120;2023-05-23T05:46:44;29.65;;;20.77;;
11042;SDS011;5574;48.786;10.120;2023-05-23T05:49:12;26.45;;;19.77;;
11042;SDS011;5574;48.786;10.120;2023-05-23T05:51:40;34.65;;;21.20;;
11042;SDS011;5574;48.786;10.120;2023-05-23T05:54:06;33.05;;;21.60;;
11042;SDS011;5574;48.786;10.120;2023-05-23T05:56:33;25.48;;;19.90;;
11042;SDS011;5574;48.786;10.120;2023-05-23T05:59:00;29.33;;;20.60;;
11042;SDS011;5574;48.786;10.120;2023-05-23T06:01:27;25.45;;;20.85;;
11042;SDS011;5574;48.786;10.120;2023-05-23T06:03:56;25.23;;;20.30;;
11042;SDS011;5574;48.786;10.120;2023-05-23T06:06:23;24.58;;;20.83;;
11042;SDS011;5574;48.786;10.120;2023-05-23T06:08:50;27.30;;;21.35;;
11042;SDS011;5574;48.786;10.120;2023-05-23T06:11:17;24.88;;;21.25;;
11042;SDS011;5574;48.786;10.120;2023-05-23T06:13:44;28.30;;;21.15;;
11042;SDS011;5574;48.786;10.120;2023-05-23T06:16:10;25.63;;;20.73;;
11042;SDS011;5574;48.786;10.120;2023-05-23T06:18:39;22.40;;;19.60;;
11042;SDS011;5574;48.786;10.120;2023-05-23T06:21:07;29.60;;;20.08;;
11042;SDS011;5574;48.786;10.120;2023-05-23T06:23:34;23.38;;;18.90;;
11042;SDS011;5574;48.786;10.120;2023-05-23T06:26:01;23.35;;;19.13;;
11042;SDS011;5574;48.786;10.120;2023-05-23T06:28:27;24.83;;;19.17;;
11042;SDS011;5574;48.786;10.120;2023-05-23T06:30:54;23.98;;;19.13;;
11042;SDS011;5574;48.786;10.120;2023-05-23T06:33:21;24.85;;;19.23;;
11042;SDS011;5574;48.786;10.120;2023-05-23T06:35:47;21.90;;;18.42;;
11042;SDS011;5574;48.786;10.120;2023-05-23T06:38:16;21.42;;;19.13;;
11042;SDS011;5574;48.786;10.120;2023-05-23T06:40:42;22.92;;;19.45;;
11042;SDS011;5574;48.786;10.120;2023-05-23T06:43:09;22.27;;;18.30;;
11042;SDS011;5574;48.786;10.120;2023-05-23T06:45:36;22.15;;;18.73;;
11042;SDS011;5574;48.786;10.120;2023-05-23T06:48:03;23.98;;;18.83;;
11042;SDS011;5574;48.786;10.120;2023-05-23T06:50:29;23.08;;;18.23;;
11042;SDS011;5574;48.786;10.120;2023-05-23T06:52:56;23.08;;;18.92;;
11042;SDS011;5574;48.786;10.120;2023-05-23T06:55:24;19.90;;;17.65;;
11042;SDS011;5574;48.786;10.120;2023-05-23T06:57:52;19.70;;;16.73;;
11042;SDS011;5574;48.786;10.120;2023-05-23T07:00:19;23.58;;;16.60;;
11042;SDS011;5574;48.786;10.120;2023-05-23T07:02:45;20.17;;;15.73;;
11042;SDS011;5574;48.786;10.120;2023-05-23T07:05:13;20.52;;;17.20;;
11042;SDS011;5574;48.786;10.120;2023-05-23T07:07:41;21.33;;;18.92;;
11042;SDS011;5574;48.786;10.120;2023-05-23T07:10:08;24.27;;;18.92;;
11042;SDS011;5574;48.786;10.120;2023-05-23T07:12:37;22.42;;;18.67;;
11042;SDS011;5574;48.786;10.120;2023-05-23T07:15:04;21.83;;;17.48;;
11042;SDS011;5574;48.786;10.120;2023-05-23T07:17:31;19.80;;;17.17;;
11042;SDS011;5574;48.786;10.120;2023-05-23T07:20:00;39.60;;;18.63;;
11042;SDS011;5574;48.786;10.120;2023-05-23T07:22:28;23.50;;;18.45;;
11042;SDS011;5574;48.786;10.120;2023-05-23T07:24:55;22.30;;;18.17;;
11042;SDS011;5574;48.786;10.120;2023-05-23T07:27:21;21.60;;;18.00;;
11042;SDS011;5574;48.786;10.120;2023-05-23T07:29:50;19.95;;;17.65;;
11042;SDS011;5574;48.786;10.120;2023-05-23T07:32:16;21.45;;;18.02;;
11042;SDS011;5574;48.786;10.120;2023-05-23T07:34:43;21.92;;;17.30;;
11042;SDS011;5574;48.786;10.120;2023-05-23T07:37:10;23.98;;;17.10;;
11042;SDS011;5574;48.786;10.120;2023-05-23T07:39:36;24.42;;;17.40;;
11042;SDS011;5574;48.786;10.120;2023-05-23T07:42:03;19.17;;;17.05;;
11042;SDS011;5574;48.786;10.120;2023-05-23T07:44:30;19.25;;;17.25;;
11042;SDS011;5574;48.786;10.120;2023-05-23T07:46:58;18.38;;;16.35;;
11042;SDS011;5574;48.786;10.120;2023-05-23T07:49:25;17.60;;;15.77;;
11042;SDS011;5574;48.786;10.120;2023-05-23T07:51:51;18.05;;;16.15;;
11042;SDS011;5574;48.786;10.120;2023-05-23T07:54:18;19.17;;;15.93;;
11042;SDS011;5574;48.786;10.120;2023-05-23T07:56:45;16.77;;;14.90;;
11042;SDS011;5574;48.786;10.120;2023-05-23T07:59:12;17.65;;;15.75;;
11042;SDS011;5574;48.786;10.120;2023-05-23T08:01:38;16.55;;;14.80;;
11042;SDS011;5574;48.786;10.120;2023-05-23T08:04:07;17.30;;;15.48;;
11042;SDS011;5574;48.786;10.120;2023-05-23T08:06:34;19.80;;;16.17;;
11042;SDS011;5574;48.786;10.120;2023-05-23T08:09:02;16.73;;;14.90;;
11042;SDS011;5574;48.786;10.120;2023-05-23T08:11:29;18.20;;;16.00;;
11042;SDS011;5574;48.786;10.120;2023-05-23T08:13:56;20.27;;;17.58;;
11042;SDS011;5574;48.786;10.120;2023-05-23T08:16:24;18.40;;;16.50;;
11042;SDS011;5574;48.786;10.120;2023-05-23T08:18:51;20.85;;;16.80;;
11042;SDS011;5574;48.786;10.120;2023-05-23T08:21:19;19.58;;;16.30;;
11042;SDS011;5574;48.786;10.120;2023-05-23T08:23:46;17.60;;;15.75;;
11042;SDS011;5574;48.786;10.120;2023-05-23T08:26:13;18.10;;;15.63;;
11042;SDS011;5574;48.786;10.120;2023-05-23T08:28:40;18.42;;;15.90;;
11042;SDS011;5574;48.786;10.120;2023-05-23T08:31:06;19.17;;;15.50;;
11042;SDS011;5574;48.786;10.120;2023-05-23T08:33:33;16.40;;;14.70;;
11042;SDS011;5574;48.786;10.120;2023-05-23T08:36:00;16.92;;;14.80;;
11042;SDS011;5574;48.786;10.120;2023-05-23T08:38:28;18.27;;;15.30;;
11042;SDS011;5574;48.786;10.120;2023-05-23T08:40:54;17.58;;;15.50;;
11042;SDS011;5574;48.786;10.120;2023-05-23T08:43:25;16.35;;;14.52;;
11042;SDS011;5574;48.786;10.120;2023-05-23T08:45:52;17.05;;;15.23;;
11042;SDS011;5574;48.786;10.120;2023-05-23T08:48:19;19.30;;;16.48;;
11042;SDS011;5574;48.786;10.120;2023-05-23T08:50:47;18.25;;;16.33;;
11042;SDS011;5574;48.786;10.120;2023-05-23T08:53:18;18.17;;;15.98;;
11042;SDS011;5574;48.786;10.120;2023-05-23T08:55:49;20.60;;;16.65;;
11042;SDS011;5574;48.786;10.120;2023-05-23T08:58:16;18.15;;;16.25;;
11042;SDS011;5574;48.786;10.120;2023-05-23T09:00:45;21.13;;;17.02;;
11042;SDS011;5574;48.786;10.120;2023-05-23T09:03:12;18.40;;;16.50;;
11042;SDS011;5574;48.786;10.120;2023-05-23T09:05:39;18.55;;;15.63;;
11042;SDS011;5574;48.786;10.120;2023-05-23T09:08:07;21.83;;;17.00;;
11042;SDS011;5574;48.786;10.120;2023-05-23T09:10:34;17.35;;;14.93;;
11042;SDS011;5574;48.786;10.120;2023-05-23T09:13:03;17.90;;;16.00;;
11042;SDS011;5574;48.786;10.120;2023-05-23T09:15:30;19.05;;;16.13;;
11042;SDS011;5574;48.786;10.120;2023-05-23T09:17:58;21.05;;;14.82;;
11042;SDS011;5574;48.786;10.120;2023-05-23T09:20:27;17.05;;;15.35;;
11042;SDS011;5574;48.786;10.120;2023-05-23T09:22:54;19.88;;;16.08;;
11042;SDS011;5574;48.786;10.120;2023-05-23T09:25:21;18.73;;;15.60;;
11042;SDS011;5574;48.786;10.120;2023-05-23T09:27:47;20.80;;;15.23;;
11042;SDS011;5574;48.786;10.120;2023-05-23T09:30:18;17.48;;;14.43;;
11042;SDS011;5574;48.786;10.120;2023-05-23T09:32:56;16.80;;;14.57;;
11042;SDS011;5574;48.786;10.120;2023-05-23T09:35:24;15.80;;;13.48;;
11042;SDS011;5574;48.786;10.120;2023-05-23T09:37:55;16.65;;;14.90;;
11042;SDS011;5574;48.786;10.120;2023-05-23T09:40:27;16.15;;;14.48;;
11042;SDS011;5574;48.786;10.120;2023-05-23T09:42:56;16.58;;;14.27;;
11042;SDS011;5574;48.786;10.120;2023-05-23T09:45:29;16.58;;;14.32;;
11042;SDS011;5574;48.786;10.120;2023-05-23T09:47:57;18.55;;;14.65;;
11042;SDS011;5574;48.786;10.120;2023-05-23T09:50:25;15.02;;;13.43;;
11042;SDS011;5574;48.786;10.120;2023-05-23T09:52:57;16.23;;;12.98;;
11042;SDS011;5574;48.786;10.120;2023-05-23T09:55:24;15.30;;;13.50;;
11042;SDS011;5574;48.786;10.120;2023-05-23T09:57:51;14.63;;;12.93;;
11042;SDS011;5574;48.786;10.120;2023-05-23T10:00:20;23.30;;;13.35;;
11042;SDS011;5574;48.786;10.120;2023-05-23T10:03:00;20.52;;;14.73;;
11042;SDS011;5574;48.786;10.120;2023-05-23T10:05:35;20.60;;;15.23;;
11042;SDS011;5574;48.786;10.120;2023-05-23T10:08:07;15.23;;;13.63;;
11042;SDS011;5574;48.786;10.120;2023-05-23T10:10:46;14.98;;;13.43;;
11042;SDS011;5574;48.786;10.120;2023-05-23T10:14:05;14.80;;;13.30;;
11042;SDS011;5574;48.786;10.120;2023-05-23T10:16:37;15.43;;;13.82;;
11042;SDS011;5574;48.786;10.120;2023-05-23T10:19:12;16.77;;;13.50;;
11042;SDS011;5574;48.786;10.120;2023-05-23T10:21:43;22.23;;;15.10;;
11042;SDS011;5574;48.786;10.120;2023-05-23T10:24:16;17.73;;;13.68;;
11042;SDS011;5574;48.786;10.120;2023-05-23T10:26:43;14.90;;;13.30;;
11042;SDS011;5574;48.786;10.120;2023-05-23T10:29:10;16.27;;;14.00;;
11042;SDS011;5574;48.786;10.120;2023-05-23T10:31:37;15.70;;;13.60;;
11042;SDS011;5574;48.786;10.120;2023-05-23T10:34:07;14.98;;;12.90;;
11042;SDS011;5574;48.786;10.120;2023-05-23T16:30:11;5.20;;;4.10;;
11042;SDS011;5574;48.786;10.120;2023-05-23T16:32:38;4.10;;;3.70;;
11042;SDS011;5574;48.786;10.120;2023-05-23T16:35:05;4.07;;;3.70;;
11042;SDS011;5574;48.786;10.120;2023-05-23T16:37:32;17.17;;;4.40;;
11042;SDS011;5574;48.786;10.120;2023-05-23T16:39:59;7.50;;;3.90;;
11042;SDS011;5574;48.786;10.120;2023-05-23T16:42:26;3.80;;;3.50;;
11042;SDS011;5574;48.786;10.120;2023-05-23T16:44:52;4.20;;;3.67;;
11042;SDS011;5574;48.786;10.120;2023-05-23T16:47:20;5.07;;;3.50;;
11042;SDS011;5574;48.786;10.120;2023-05-23T16:49:47;6.10;;;3.50;;
11042;SDS011;5574;48.786;10.120;2023-05-23T16:52:14;3.80;;;3.20;;
11042;SDS011;5574;48.786;10.120;2023-05-23T16:54:42;3.72;;;3.25;;
11042;SDS011;5574;48.786;10.120;2023-05-23T16:57:09;8.30;;;4.03;;
11042;SDS011;5574;48.786;10.120;2023-05-23T16:59:35;6.97;;;3.00;;
11042;SDS011;5574;48.786;10.120;2023-05-23T17:02:02;4.47;;;3.25;;
11042;SDS011;5574;48.786;10.120;2023-05-23T17:04:30;3.78;;;3.35;;
11042;SDS011;5574;48.786;10.120;2023-05-23T17:06:57;3.40;;;3.08;;
11042;SDS011;5574;48.786;10.120;2023-05-23T17:09:24;52.78;;;7.28;;
11042;SDS011;5574;48.786;10.120;2023-05-23T17:11:50;6.57;;;3.95;;
11042;SDS011;5574;48.786;10.120;2023-05-23T17:14:17;3.80;;;3.50;;
11042;SDS011;5574;48.786;10.120;2023-05-23T17:16:44;3.38;;;3.08;;
11042;SDS011;5574;48.786;10.120;2023-05-23T17:19:10;4.45;;;3.50;;
11042;SDS011;5574;48.786;10.120;2023-05-23T17:21:38;3.28;;;2.97;;
11042;SDS011;5574;48.786;10.120;2023-05-23T17:24:05;4.18;;;3.70;;
11042;SDS011;5574;48.786;10.120;2023-05-23T17:26:32;6.47;;;3.28;;
11042;SDS011;5574;48.786;10.120;2023-05-23T17:28:58;3.45;;;3.15;;
11042;SDS011;5574;48.786;10.120;2023-05-23T17:31:25;6.18;;;3.50;;
11042;SDS011;5574;48.786;10.120;2023-05-23T17:33:52;3.35;;;3.15;;
11042;SDS011;5574;48.786;10.120;2023-05-23T17:36:18;4.30;;;3.38;;
11042;SDS011;5574;48.786;10.120;2023-05-23T17:38:47;3.95;;;3.22;;
11042;SDS011;5574;48.786;10.120;2023-05-23T17:41:13;3.40;;;3.10;;
11042;SDS011;5574;48.786;10.120;2023-05-23T17:43:40;3.55;;;3.25;;
11042;SDS011;5574;48.786;10.120;2023-05-23T17:46:07;4.38;;;3.30;;
11042;SDS011;5574;48.786;10.120;2023-05-23T17:48:34;8.25;;;3.50;;
11042;SDS011;5574;48.786;10.120;2023-05-23T17:51:01;5.88;;;3.50;;
11042;SDS011;5574;48.786;10.120;2023-05-23T17:53:27;16.65;;;4.32;;
11042;SDS011;5574;48.786;10.120;2023-05-23T17:55:55;5.63;;;3.63;;
11042;SDS011;5574;48.786;10.120;2023-05-23T17:58:22;5.13;;;3.45;;
11042;SDS011;5574;48.786;10.120;2023-05-23T18:00:49;4.07;;;3.08;;
11042;SDS011;5574;48.786;10.120;2023-05-23T18:03:15;3.70;;;3.40;;
11042;SDS011;5574;48.786;10.120;2023-05-23T18:05:43;4.70;;;2.95;;
11042;SDS011;5574;48.786;10.120;2023-05-23T18:08:09;4.28;;;3.10;;
11042;SDS011;5574;48.786;10.120;2023-05-23T18:10:36;10.38;;;3.97;;
11042;SDS011;5574;48.786;10.120;2023-05-23T18:13:04;17.67;;;4.18;;
11042;SDS011;5574;48.786;10.120;2023-05-23T18:15:31;8.13;;;2.80;;
11042;SDS011;5574;48.786;10.120;2023-05-23T18:17:58;3.22;;;2.50;;
11042;SDS011;5574;48.786;10.120;2023-05-23T18:20:24;5.50;;;2.63;;
11042;SDS011;5574;48.786;10.120;2023-05-23T18:22:51;3.08;;;2.55;;
11042;SDS011;5574;48.786;10.120;2023-05-23T18:25:19;3.03;;;2.67;;
11042;SDS011;5574;48.786;10.120;2023-05-23T18:27:51;2.60;;;2.40;;
11042;SDS011;5574;48.786;10.120;2023-05-23T18:30:19;2.50;;;2.33;;
11042;SDS011;5574;48.786;10.120;2023-05-23T18:32:46;2.60;;;2.40;;
11042;SDS011;5574;48.786;10.120;2023-05-23T18:35:13;3.30;;;2.60;;
11042;SDS011;5574;48.786;10.120;2023-05-23T18:37:40;2.25;;;2.13;;
11042;SDS011;5574;48.786;10.120;2023-05-23T18:40:07;3.08;;;2.22;;
11042;SDS011;5574;48.786;10.120;2023-05-23T18:42:34;3.20;;;2.30;;
11042;SDS011;5574;48.786;10.120;2023-05-23T18:45:01;2.78;;;2.58;;
11042;SDS011;5574;48.786;10.120;2023-05-23T18:47:29;2.25;;;2.13;;
11042;SDS011;5574;48.786;10.120;2023-05-23T18:49:56;2.70;;;1.80;;
11042;SDS011;5574;48.786;10.120;2023-05-23T18:52:22;2.03;;;1.85;;
11042;SDS011;5574;48.786;10.120;2023-05-23T18:54:49;2.00;;;1.90;;
11042;SDS011;5574;48.786;10.120;2023-05-23T18:57:17;2.55;;;2.00;;
11042;SDS011;5574;48.786;10.120;2023-05-23T18:59:44;2.33;;;2.00;;
11042;SDS011;5574;48.786;10.120;2023-05-23T19:02:11;2.13;;;2.03;;
11042;SDS011;5574;48.786;10.120;2023-05-23T19:04:39;2.58;;;2.38;;
11042;SDS011;5574;48.786;10.120;2023-05-23T19:07:05;1.83;;;1.73;;
11042;SDS011;5574;48.786;10.120;2023-05-23T19:09:32;2.38;;;1.90;;
11042;SDS011;5574;48.786;10.120;2023-05-23T19:11:59;4.72;;;2.20;;
11042;SDS011;5574;48.786;10.120;2023-05-23T19:14:26;3.58;;;2.20;;
11042;SDS011;5574;48.786;10.120;2023-05-23T19:16:52;3.95;;;2.20;;
11042;SDS011;5574;48.786;10.120;2023-05-23T19:19:19;2.00;;;1.90;;
11042;SDS011;5574;48.786;10.120;2023-05-23T19:21:48;1.80;;;1.70;;
11042;SDS011;5574;48.786;10.120;2023-05-23T19:24:15;2.88;;;2.00;;
11042;SDS011;5574;48.786;10.120;2023-05-23T19:26:41;2.47;;;1.83;;
11042;SDS011;5574;48.786;10.120;2023-05-23T19:29:08;1.90;;;1.80;;
11042;SDS011;5574;48.786;10.120;2023-05-23T19:31:35;2.05;;;1.95;;
11042;SDS011;5574;48.786;10.120;2023-05-23T19:34:02;2.63;;;1.85;;
11042;SDS011;5574;48.786;10.120;2023-05-23T19:36:30;2.10;;;2.00;;
11042;SDS011;5574;48.786;10.120;2023-05-23T19:38:58;1.90;;;1.80;;
11042;SDS011;5574;48.786;10.120;2023-05-23T19:41:25;2.10;;;2.00;;
11042;SDS011;5574;48.786;10.120;2023-05-23T19:43:52;1.80;;;1.70;;
11042;SDS011;5574;48.786;10.120;2023-05-23T19:46:18;3.67;;;2.22;;
11042;SDS011;5574;48.786;10.120;2023-05-23T19:48:45;2.20;;;2.00;;
11042;SDS011;5574;48.786;10.120;2023-05-23T19:51:12;1.85;;;1.75;;
11042;SDS011;5574;48.786;10.120;2023-05-23T19:53:40;2.40;;;2.20;;
11042;SDS011;5574;48.786;10.120;2023-05-23T19:56:08;2.20;;;2.00;;
11042;SDS011;5574;48.786;10.120;2023-05-23T19:58:35;1.90;;;1.80;;
11042;SDS011;5574;48.786;10.120;2023-05-23T20:01:01;2.58;;;2.38;;
11042;SDS011;5574;48.786;10.120;2023-05-23T20:03:29;1.90;;;1.80;;
11042;SDS011;5574;48.786;10.120;2023-05-23T20:05:55;2.05;;;1.88;;
11042;SDS011;5574;48.786;10.120;2023-05-23T20:08:22;1.98;;;1.88;;
11042;SDS011;5574;48.786;10.120;2023-05-23T20:10:50;2.60;;;2.40;;
11042;SDS011;5574;48.786;10.120;2023-05-23T20:13:17;6.43;;;2.50;;
11042;SDS011;5574;48.786;10.120;2023-05-23T20:15:45;2.45;;;2.25;;
11042;SDS011;5574;48.786;10.120;2023-05-23T20:18:12;2.78;;;2.00;;
11042;SDS011;5574;48.786;10.120;2023-05-23T20:20:39;2.63;;;2.42;;
11042;SDS011;5574;48.786;10.120;2023-05-23T20:23:06;2.08;;;1.98;;
11042;SDS011;5574;48.786;10.120;2023-05-23T20:25:33;2.55;;;2.35;;